sensor_id;sensor_type;location;lat;lon;timestamp;pressure;altitude;pressure_sealevel;temperature;humidity
27685;BME280;46113;50.130;8.526;2022-10-16T04:17:59;99889.00;;;11.35;100.00
27685;BME280;46113;50.130;8.526;2022-10-16T04:20:25;99889.69;;;11.39;100.00
27685;BME280;46113;50.130;8.526;2022-10-16T04:22:52;99905.91;;;11.33;100.00
27685;BME280;46113;50.130;8.526;2022-10-16T04:25:18;99911.34;;;11.30;100.00
27685;BME280;46113;50.130;8.526;2022-10-16T04:27:45;99910.56;;;11.45;100.00
27685;BME280;46113;50.130;8.526;2022-10-16T04:30:12;99925.22;;;11.35;100.00
27685;BME280;46113;50.130;8.526;2022-10-16T04:32:39;99915.03;;;11.45;99.63
27685;BME280;46113;50.130;8.526;2022-10-16T04:35:06;99921.81;;;11.33;99.91
27685;BME280;46113;50.130;8.526;2022-10-16T04:37:33;99917.44;;;11.49;99.35
27685;BME280;46113;50.130;8.526;2022-10-16T04:40:00;99915.94;;;11.61;98.56
27685;BME280;46113;50.130;8.526;2022-10-16T04:42:26;99913.03;;;11.66;98.42
27685;BME280;46113;50.130;8.526;2022-10-16T04:44:53;99918.81;;;11.74;98.21
27685;BME280;46113;50.130;8.526;2022-10-16T04:47:19;99925.81;;;11.75;97.64
27685;BME280;46113;50.130;8.526;2022-10-16T04:49:46;99920.28;;;11.80;97.25
27685;BME280;46113;50.130;8.526;2022-10-16T04:52:12;99918.63;;;11.77;97.25
27685;BME280;46113;50.130;8.526;2022-10-16T04:54:39;99916.84;;;11.78;96.92
27685;BME280;46113;50.130;8.526;2022-10-16T04:57:05;99924.88;;;11.76;96.59
27685;BME280;46113;50.130;8.526;2022-10-16T04:59:32;99923.72;;;11.64;96.95
27685;BME280;46113;50.130;8.526;2022-10-16T05:01:58;99923.22;;;11.74;96.66
27685;BME280;46113;50.130;8.526;2022-10-16T05:04:25;99925.66;;;11.78;95.96
27685;BME280;46113;50.130;8.526;2022-10-16T05:06:51;99928.13;;;11.81;96.01
27685;BME280;46113;50.130;8.526;2022-10-16T05:09:18;99934.16;;;11.85;95.84
27685;BME280;46113;50.130;8.526;2022-10-16T05:11:44;99930.03;;;11.62;96.44
27685;BME280;46113;50.130;8.526;2022-10-16T05:14:11;99934.53;;;11.77;95.47
27685;BME280;46113;50.130;8.526;2022-10-16T05:16:37;99929.81;;;11.66;95.70
27685;BME280;46113;50.130;8.526;2022-10-16T05:19:04;99939.72;;;11.63;95.32
27685;BME280;46113;50.130;8.526;2022-10-16T05:21:50;99922.63;;;11.68;95.24
27685;BME280;46113;50.130;8.526;2022-10-16T05:24:17;99932.06;;;11.74;94.72
27685;BME280;46113;50.130;8.526;2022-10-16T05:26:43;99917.72;;;11.78;94.68
27685;BME280;46113;50.130;8.526;2022-10-16T05:29:10;99925.66;;;11.78;94.36
27685;BME280;46113;50.130;8.526;2022-10-16T05:31:37;99933.44;;;11.81;94.15
27685;BME280;46113;50.130;8.526;2022-10-16T05:34:03;99929.00;;;11.82;94.37
27685;BME280;46113;50.130;8.526;2022-10-16T05:36:30;99920.91;;;11.85;94.29
27685;BME280;46113;50.130;8.526;2022-10-16T05:38:56;99923.44;;;11.87;94.35
27685;BME280;46113;50.130;8.526;2022-10-16T05:41:23;99932.75;;;11.78;94.05
27685;BME280;46113;50.130;8.526;2022-10-16T05:43:54;99930.34;;;11.73;94.18
27685;BME280;46113;50.130;8.526;2022-10-16T05:46:20;99932.28;;;11.70;94.69
27685;BME280;46113;50.130;8.526;2022-10-16T05:48:47;99934.91;;;11.87;94.38
27685;BME280;46113;50.130;8.526;2022-10-16T05:51:14;99934.22;;;11.84;94.03
27685;BME280;46113;50.130;8.526;2022-10-16T05:53:41;99941.78;;;11.74;94.01
27685;BME280;46113;50.130;8.526;2022-10-16T05:56:09;99946.78;;;11.62;94.20
27685;BME280;46113;50.130;8.526;2022-10-16T05:58:37;99949.50;;;11.61;94.38
27685;BME280;46113;50.130;8.526;2022-10-16T06:01:11;99960.19;;;11.59;94.19
27685;BME280;46113;50.130;8.526;2022-10-16T06:03:38;99962.59;;;11.46;94.85
27685;BME280;46113;50.130;8.526;2022-10-16T06:08:38;99972.28;;;11.65;94.81
27685;BME280;46113;50.130;8.526;2022-10-16T06:11:09;99964.88;;;11.54;95.00
27685;BME280;46113;50.130;8.526;2022-10-16T06:14:03;99950.31;;;11.63;94.57
27685;BME280;46113;50.130;8.526;2022-10-16T06:16:35;99963.63;;;11.61;94.56
27685;BME280;46113;50.130;8.526;2022-10-16T06:19:02;99972.91;;;11.52;95.04
27685;BME280;46113;50.130;8.526;2022-10-16T06:21:32;99978.38;;;11.49;94.94
27685;BME280;46113;50.130;8.526;2022-10-16T06:23:59;99980.31;;;11.46;95.82
27685;BME280;46113;50.130;8.526;2022-10-16T06:26:28;99980.13;;;11.49;95.66
27685;BME280;46113;50.130;8.526;2022-10-16T06:28:55;99984.53;;;11.50;95.26
27685;BME280;46113;50.130;8.526;2022-10-16T06:31:26;99984.84;;;11.61;94.74
27685;BME280;46113;50.130;8.526;2022-10-16T06:33:57;99984.84;;;11.61;94.48
27685;BME280;46113;50.130;8.526;2022-10-16T06:36:27;99986.16;;;11.70;94.47
27685;BME280;46113;50.130;8.526;2022-10-16T06:38:58;99985.53;;;11.83;94.12
27685;BME280;46113;50.130;8.526;2022-10-16T06:41:24;99968.69;;;11.84;93.63
27685;BME280;46113;50.130;8.526;2022-10-16T06:43:51;99973.19;;;11.81;93.99
27685;BME280;46113;50.130;8.526;2022-10-16T06:46:21;99983.72;;;11.83;93.42
27685;BME280;46113;50.130;8.526;2022-10-16T06:48:49;99993.63;;;11.79;93.05
27685;BME280;46113;50.130;8.526;2022-10-16T06:51:17;99986.38;;;11.83;92.83
27685;BME280;46113;50.130;8.526;2022-10-16T06:53:47;99994.88;;;11.90;92.34
27685;BME280;46113;50.130;8.526;2022-10-16T06:56:28;99998.13;;;11.95;92.51
27685;BME280;46113;50.130;8.526;2022-10-16T06:58:57;99998.22;;;11.93;92.53
27685;BME280;46113;50.130;8.526;2022-10-16T07:01:24;100001.34;;;11.84;92.27
27685;BME280;46113;50.130;8.526;2022-10-16T07:03:51;100000.66;;;11.80;92.45
27685;BME280;46113;50.130;8.526;2022-10-16T07:06:19;100010.78;;;11.90;92.19
27685;BME280;46113;50.130;8.526;2022-10-16T07:08:47;100011.19;;;11.82;92.51
27685;BME280;46113;50.130;8.526;2022-10-16T07:11:16;100018.72;;;11.90;92.36
27685;BME280;46113;50.130;8.526;2022-10-16T07:13:44;100010.31;;;11.99;91.84
27685;BME280;46113;50.130;8.526;2022-10-16T07:16:21;100022.69;;;11.99;91.87
27685;BME280;46113;50.130;8.526;2022-10-16T07:18:48;100011.91;;;12.03;91.23
27685;BME280;46113;50.130;8.526;2022-10-16T07:21:20;100027.63;;;12.06;91.26
27685;BME280;46113;50.130;8.526;2022-10-16T07:23:54;100041.69;;;12.09;90.75
27685;BME280;46113;50.130;8.526;2022-10-16T07:26:32;100041.34;;;12.15;90.62
27685;BME280;46113;50.130;8.526;2022-10-16T07:28:59;100045.66;;;12.17;90.29
27685;BME280;46113;50.130;8.526;2022-10-16T07:31:27;100058.38;;;12.11;90.47
27685;BME280;46113;50.130;8.526;2022-10-16T07:33:54;100060.75;;;12.15;90.31
27685;BME280;46113;50.130;8.526;2022-10-16T07:36:21;100058.97;;;12.16;90.08
27685;BME280;46113;50.130;8.526;2022-10-16T07:38:48;100062.72;;;12.29;89.77
27685;BME280;46113;50.130;8.526;2022-10-16T07:41:17;100076.06;;;12.28;89.98
27685;BME280;46113;50.130;8.526;2022-10-16T07:43:51;100084.25;;;12.05;90.54
27685;BME280;46113;50.130;8.526;2022-10-16T07:46:19;100081.97;;;12.15;90.06
27685;BME280;46113;50.130;8.526;2022-10-16T07:49:00;100085.56;;;12.32;89.51
27685;BME280;46113;50.130;8.526;2022-10-16T07:51:53;100085.31;;;12.37;89.59
27685;BME280;46113;50.130;8.526;2022-10-16T07:54:19;100078.78;;;12.44;89.65
27685;BME280;46113;50.130;8.526;2022-10-16T07:56:46;100089.81;;;12.52;89.49
27685;BME280;46113;50.130;8.526;2022-10-16T07:59:12;100100.75;;;12.46;89.74
27685;BME280;46113;50.130;8.526;2022-10-16T08:01:39;100102.53;;;12.45;89.78
27685;BME280;46113;50.130;8.526;2022-10-16T08:04:05;100115.09;;;12.59;89.44
27685;BME280;46113;50.130;8.526;2022-10-16T08:06:36;100112.19;;;12.64;89.82
27685;BME280;46113;50.130;8.526;2022-10-16T08:09:03;100113.06;;;12.65;89.58
27685;BME280;46113;50.130;8.526;2022-10-16T08:11:30;100115.09;;;12.59;88.97
27685;BME280;46113;50.130;8.526;2022-10-16T08:13:57;100112.47;;;12.42;88.26
27685;BME280;46113;50.130;8.526;2022-10-16T08:16:24;100117.78;;;12.42;89.44
27685;BME280;46113;50.130;8.526;2022-10-16T08:18:50;100127.22;;;12.48;89.87
27685;BME280;46113;50.130;8.526;2022-10-16T08:21:20;100124.97;;;12.40;90.26
27685;BME280;46113;50.130;8.526;2022-10-16T08:23:48;100134.03;;;12.36;89.89
27685;BME280;46113;50.130;8.526;2022-10-16T08:26:22;100132.72;;;12.27;90.66
27685;BME280;46113;50.130;8.526;2022-10-16T08:28:50;100133.25;;;12.33;90.61
27685;BME280;46113;50.130;8.526;2022-10-16T08:31:17;100138.38;;;12.37;90.99
27685;BME280;46113;50.130;8.526;2022-10-16T08:33:45;100138.25;;;12.40;90.71
27685;BME280;46113;50.130;8.526;2022-10-16T08:36:14;100145.25;;;12.41;90.08
27685;BME280;46113;50.130;8.526;2022-10-16T08:38:41;100141.97;;;12.36;90.11
27685;BME280;46113;50.130;8.526;2022-10-16T08:41:20;100152.28;;;12.24;90.76
27685;BME280;46113;50.130;8.526;2022-10-16T08:49:24;100168.97;;;12.26;92.64
27685;BME280;46113;50.130;8.526;2022-10-16T08:51:55;100179.19;;;12.34;92.05
27685;BME280;46113;50.130;8.526;2022-10-16T08:54:50;100174.59;;;12.38;91.68
27685;BME280;46113;50.130;8.526;2022-10-16T08:57:22;100163.97;;;12.55;91.41
27685;BME280;46113;50.130;8.526;2022-10-16T08:59:51;100162.09;;;12.57;92.24
27685;BME280;46113;50.130;8.526;2022-10-16T09:02:48;100159.34;;;12.77;91.45
27685;BME280;46113;50.130;8.526;2022-10-16T09:05:46;100161.41;;;12.88;90.93
27685;BME280;46113;50.130;8.526;2022-10-16T09:10:59;100193.16;;;12.55;90.44
27685;BME280;46113;50.130;8.526;2022-10-16T09:14:06;100196.59;;;12.57;91.20
27685;BME280;46113;50.130;8.526;2022-10-16T09:16:38;100196.19;;;12.65;91.25
27685;BME280;46113;50.130;8.526;2022-10-16T09:19:17;100201.69;;;12.62;90.68
27685;BME280;46113;50.130;8.526;2022-10-16T09:21:47;100215.09;;;12.59;91.14
27685;BME280;46113;50.130;8.526;2022-10-16T09:24:43;100214.47;;;12.54;92.07
27685;BME280;46113;50.130;8.526;2022-10-16T09:27:11;100221.88;;;12.29;92.06
27685;BME280;46113;50.130;8.526;2022-10-16T09:29:38;100223.53;;;12.50;92.20
27685;BME280;46113;50.130;8.526;2022-10-16T09:35:43;100226.41;;;12.63;91.86
27685;BME280;46113;50.130;8.526;2022-10-16T09:38:25;100221.31;;;12.76;91.57
27685;BME280;46113;50.130;8.526;2022-10-16T09:40:53;100237.03;;;12.63;91.70
27685;BME280;46113;50.130;8.526;2022-10-16T09:43:58;100221.28;;;12.59;92.01
27685;BME280;46113;50.130;8.526;2022-10-16T09:46:28;100229.53;;;12.71;91.79
27685;BME280;46113;50.130;8.526;2022-10-16T09:48:58;100230.69;;;12.65;92.08
27685;BME280;46113;50.130;8.526;2022-10-16T09:51:36;100235.00;;;12.68;91.83
27685;BME280;46113;50.130;8.526;2022-10-16T09:56:35;100242.28;;;12.46;93.64
27685;BME280;46113;50.130;8.526;2022-10-16T09:59:11;100243.56;;;12.38;94.23
27685;BME280;46113;50.130;8.526;2022-10-16T10:01:43;100239.13;;;12.38;94.95
27685;BME280;46113;50.130;8.526;2022-10-16T10:04:14;100246.22;;;12.38;94.70
27685;BME280;46113;50.130;8.526;2022-10-16T10:06:44;100235.38;;;12.78;94.31
27685;BME280;46113;50.130;8.526;2022-10-16T10:09:23;100232.63;;;13.15;93.06
27685;BME280;46113;50.130;8.526;2022-10-16T10:11:54;100234.13;;;13.36;91.55
27685;BME280;46113;50.130;8.526;2022-10-16T10:14:34;100240.56;;;13.64;90.17
27685;BME280;46113;50.130;8.526;2022-10-16T10:19:55;100232.41;;;14.00;86.56
27685;BME280;46113;50.130;8.526;2022-10-16T10:22:29;100238.44;;;13.87;85.19
27685;BME280;46113;50.130;8.526;2022-10-16T10:24:57;100227.78;;;14.03;86.46
27685;BME280;46113;50.130;8.526;2022-10-16T10:37:09;100237.69;;;14.63;80.21
27685;BME280;46113;50.130;8.526;2022-10-16T10:39:44;100233.66;;;14.86;79.73
27685;BME280;46113;50.130;8.526;2022-10-16T10:42:23;100231.78;;;14.88;76.49
27685;BME280;46113;50.130;8.526;2022-10-16T10:50:31;100237.72;;;15.22;75.79
27685;BME280;46113;50.130;8.526;2022-10-16T10:53:21;100228.59;;;16.11;75.37
27685;BME280;46113;50.130;8.526;2022-10-16T10:58:59;100234.66;;;16.81;71.68
27685;BME280;46113;50.130;8.526;2022-10-16T11:04:29;100241.22;;;15.52;73.61
27685;BME280;46113;50.130;8.526;2022-10-16T11:07:02;100241.44;;;15.20;75.46
27685;BME280;46113;50.130;8.526;2022-10-16T11:09:40;100236.00;;;15.07;75.95
27685;BME280;46113;50.130;8.526;2022-10-16T11:14:40;100234.22;;;14.15;79.04
27685;BME280;46113;50.130;8.526;2022-10-16T11:17:37;100230.16;;;14.55;79.59
27685;BME280;46113;50.130;8.526;2022-10-16T11:22:54;100227.38;;;14.73;78.97
27685;BME280;46113;50.130;8.526;2022-10-16T11:25:27;100222.28;;;14.53;79.40
27685;BME280;46113;50.130;8.526;2022-10-16T11:30:27;100220.31;;;15.88;76.07
27685;BME280;46113;50.130;8.526;2022-10-16T11:33:21;100218.84;;;15.97;74.20
27685;BME280;46113;50.130;8.526;2022-10-16T11:36:11;100222.34;;;16.78;72.34
27685;BME280;46113;50.130;8.526;2022-10-16T11:41:29;100230.50;;;16.90;68.47
27685;BME280;46113;50.130;8.526;2022-10-16T11:46:55;100224.94;;;17.69;65.67
27685;BME280;46113;50.130;8.526;2022-10-16T11:49:47;100219.94;;;18.13;64.42
27685;BME280;46113;50.130;8.526;2022-10-16T11:52:21;100222.88;;;18.35;63.75
27685;BME280;46113;50.130;8.526;2022-10-16T11:54:54;100230.94;;;18.46;63.71
27685;BME280;46113;50.130;8.526;2022-10-16T11:57:32;100224.84;;;19.14;60.93
27685;BME280;46113;50.130;8.526;2022-10-16T12:00:10;100216.81;;;20.58;57.97
27685;BME280;46113;50.130;8.526;2022-10-16T12:05:29;100228.41;;;21.93;52.92
27685;BME280;46113;50.130;8.526;2022-10-16T12:08:11;100228.63;;;21.70;51.47
27685;BME280;46113;50.130;8.526;2022-10-16T12:10:40;100241.84;;;20.59;54.05
27685;BME280;46113;50.130;8.526;2022-10-16T12:13:28;100229.53;;;19.79;56.26
27685;BME280;46113;50.130;8.526;2022-10-16T12:18:41;100226.28;;;19.07;58.08
27685;BME280;46113;50.130;8.526;2022-10-16T12:21:09;100220.22;;;19.16;58.60
27685;BME280;46113;50.130;8.526;2022-10-16T12:23:38;100225.00;;;20.78;55.53
27685;BME280;46113;50.130;8.526;2022-10-16T12:26:05;100226.84;;;20.77;53.33
27685;BME280;46113;50.130;8.526;2022-10-16T12:28:32;100221.28;;;19.59;56.91
27685;BME280;46113;50.130;8.526;2022-10-16T12:31:05;100234.78;;;18.78;59.50
27685;BME280;46113;50.130;8.526;2022-10-16T12:33:34;100229.16;;;18.70;61.37
27685;BME280;46113;50.130;8.526;2022-10-16T12:36:04;100238.03;;;17.85;62.06
27685;BME280;46113;50.130;8.526;2022-10-16T12:38:45;100240.91;;;18.20;62.94
27685;BME280;46113;50.130;8.526;2022-10-16T12:41:12;100236.91;;;19.43;59.37
27685;BME280;46113;50.130;8.526;2022-10-16T12:43:49;100240.59;;;19.30;57.04
27685;BME280;46113;50.130;8.526;2022-10-16T12:48:44;100238.03;;;20.61;54.95
27685;BME280;46113;50.130;8.526;2022-10-16T12:54:49;100242.28;;;19.31;57.31
27685;BME280;46113;50.130;8.526;2022-10-16T13:02:55;100231.38;;;19.79;55.44
27685;BME280;46113;50.130;8.526;2022-10-16T13:05:41;100241.69;;;18.69;59.48
27685;BME280;46113;50.130;8.526;2022-10-16T13:08:22;100232.59;;;18.11;60.39
27685;BME280;46113;50.130;8.526;2022-10-16T13:13:47;100236.53;;;17.57;61.81
27685;BME280;46113;50.130;8.526;2022-10-16T13:16:55;100240.94;;;17.58;63.13
27685;BME280;46113;50.130;8.526;2022-10-16T13:20:11;100238.13;;;17.59;63.80
27685;BME280;46113;50.130;8.526;2022-10-16T13:23:02;100249.38;;;17.39;63.45
27685;BME280;46113;50.130;8.526;2022-10-16T13:25:43;100232.00;;;17.20;63.50
27685;BME280;46113;50.130;8.526;2022-10-16T13:28:12;100234.41;;;17.23;63.25
27685;BME280;46113;50.130;8.526;2022-10-16T13:30:43;100233.78;;;17.83;62.65
27685;BME280;46113;50.130;8.526;2022-10-16T13:33:20;100236.50;;;18.19;60.75
27685;BME280;46113;50.130;8.526;2022-10-16T13:35:53;100235.91;;;18.15;59.46
27685;BME280;46113;50.130;8.526;2022-10-16T13:38:46;100233.75;;;18.56;59.10
27685;BME280;46113;50.130;8.526;2022-10-16T13:41:17;100237.16;;;17.73;61.25
27685;BME280;46113;50.130;8.526;2022-10-16T13:43:52;100234.81;;;17.93;61.50
27685;BME280;46113;50.130;8.526;2022-10-16T13:46:22;100228.94;;;18.37;59.38
27685;BME280;46113;50.130;8.526;2022-10-16T13:49:04;100239.03;;;18.33;59.81
27685;BME280;46113;50.130;8.526;2022-10-16T13:51:32;100227.50;;;18.20;59.89
27685;BME280;46113;50.130;8.526;2022-10-16T13:53:59;100228.16;;;17.99;60.79
27685;BME280;46113;50.130;8.526;2022-10-16T13:56:28;100228.81;;;17.52;61.74
27685;BME280;46113;50.130;8.526;2022-10-16T13:59:07;100229.91;;;17.37;62.27
27685;BME280;46113;50.130;8.526;2022-10-16T14:01:48;100224.50;;;17.25;63.17
27685;BME280;46113;50.130;8.526;2022-10-16T14:04:15;100225.25;;;16.88;64.55
27685;BME280;46113;50.130;8.526;2022-10-16T14:06:44;100216.28;;;17.02;64.55
27685;BME280;46113;50.130;8.526;2022-10-16T14:11:53;100206.31;;;17.04;64.90
27685;BME280;46113;50.130;8.526;2022-10-16T14:14:23;100216.88;;;17.19;65.05
27685;BME280;46113;50.130;8.526;2022-10-16T14:16:50;100221.59;;;17.28;63.93
27685;BME280;46113;50.130;8.526;2022-10-16T14:19:22;100232.19;;;17.17;64.02
27685;BME280;46113;50.130;8.526;2022-10-16T14:21:53;100237.84;;;17.25;64.29
27685;BME280;46113;50.130;8.526;2022-10-16T14:24:32;100235.41;;;17.22;64.19
27685;BME280;46113;50.130;8.526;2022-10-16T14:27:00;100242.88;;;17.04;64.44
27685;BME280;46113;50.130;8.526;2022-10-16T14:29:29;100228.22;;;17.09;64.95
27685;BME280;46113;50.130;8.526;2022-10-16T14:32:20;100240.81;;;17.33;64.55
27685;BME280;46113;50.130;8.526;2022-10-16T14:34:53;100239.31;;;17.42;66.10
27685;BME280;46113;50.130;8.526;2022-10-16T14:41:22;100246.25;;;17.71;65.69
27685;BME280;46113;50.130;8.526;2022-10-16T14:44:01;100245.06;;;17.62;64.52
27685;BME280;46113;50.130;8.526;2022-10-16T14:46:41;100238.47;;;17.55;64.24
27685;BME280;46113;50.130;8.526;2022-10-16T14:49:18;100242.19;;;17.52;65.33
27685;BME280;46113;50.130;8.526;2022-10-16T14:51:46;100236.22;;;17.61;65.66
27685;BME280;46113;50.130;8.526;2022-10-16T14:54:16;100235.13;;;17.51;65.40
27685;BME280;46113;50.130;8.526;2022-10-16T14:56:52;100239.34;;;17.55;66.35
27685;BME280;46113;50.130;8.526;2022-10-16T14:59:30;100233.41;;;17.50;66.34
27685;BME280;46113;50.130;8.526;2022-10-16T15:01:58;100235.78;;;17.55;66.64
27685;BME280;46113;50.130;8.526;2022-10-16T15:04:24;100238.78;;;17.63;66.57
27685;BME280;46113;50.130;8.526;2022-10-16T15:06:51;100234.28;;;17.64;65.84
27685;BME280;46113;50.130;8.526;2022-10-16T15:09:38;100237.97;;;17.74;65.98
27685;BME280;46113;50.130;8.526;2022-10-16T15:12:04;100234.13;;;17.78;65.94
27685;BME280;46113;50.130;8.526;2022-10-16T15:14:31;100242.72;;;17.70;65.93
27685;BME280;46113;50.130;8.526;2022-10-16T15:16:57;100245.94;;;17.63;65.74
27685;BME280;46113;50.130;8.526;2022-10-16T15:19:24;100243.59;;;17.58;66.12
27685;BME280;46113;50.130;8.526;2022-10-16T15:21:50;100253.75;;;17.53;66.90
27685;BME280;46113;50.130;8.526;2022-10-16T15:24:18;100249.78;;;17.45;66.92
27685;BME280;46113;50.130;8.526;2022-10-16T15:26:47;100258.38;;;17.38;66.56
27685;BME280;46113;50.130;8.526;2022-10-16T15:29:13;100259.22;;;17.38;67.20
27685;BME280;46113;50.130;8.526;2022-10-16T15:31:40;100260.50;;;17.32;67.15
27685;BME280;46113;50.130;8.526;2022-10-16T15:34:10;100261.59;;;17.30;68.08
27685;BME280;46113;50.130;8.526;2022-10-16T15:36:38;100257.31;;;17.27;68.69
27685;BME280;46113;50.130;8.526;2022-10-16T15:39:11;100264.25;;;17.17;68.79
27685;BME280;46113;50.130;8.526;2022-10-16T15:41:38;100267.03;;;17.15;68.90
27685;BME280;46113;50.130;8.526;2022-10-16T15:44:06;100264.47;;;17.14;69.38
27685;BME280;46113;50.130;8.526;2022-10-16T15:46:33;100263.84;;;17.10;69.47
27685;BME280;46113;50.130;8.526;2022-10-16T15:49:00;100272.38;;;17.02;69.67
27685;BME280;46113;50.130;8.526;2022-10-16T15:51:27;100270.78;;;17.00;71.03
27685;BME280;46113;50.130;8.526;2022-10-16T15:53:56;100274.63;;;16.95;71.06
27685;BME280;46113;50.130;8.526;2022-10-16T15:56:23;100277.72;;;16.89;71.29
27685;BME280;46113;50.130;8.526;2022-10-16T15:58:52;100277.19;;;16.84;71.00
27685;BME280;46113;50.130;8.526;2022-10-16T16:01:20;100269.38;;;16.81;71.32
27685;BME280;46113;50.130;8.526;2022-10-16T16:07:10;100274.97;;;16.91;71.64
27685;BME280;46113;50.130;8.526;2022-10-16T16:09:37;100272.28;;;16.91;71.25
27685;BME280;46113;50.130;8.526;2022-10-16T16:12:03;100264.56;;;16.99;71.22
27685;BME280;46113;50.130;8.526;2022-10-16T16:14:33;100263.84;;;17.10;71.20
27685;BME280;46113;50.130;8.526;2022-10-16T16:17:00;100266.22;;;17.15;70.71
27685;BME280;46113;50.130;8.526;2022-10-16T16:19:26;100271.22;;;17.19;70.54
27685;BME280;46113;50.130;8.526;2022-10-16T16:21:53;100261.91;;;17.25;71.01
27685;BME280;46113;50.130;8.526;2022-10-16T16:24:19;100261.47;;;17.31;70.59
27685;BME280;46113;50.130;8.526;2022-10-16T16:26:46;100271.31;;;17.31;70.43
27685;BME280;46113;50.130;8.526;2022-10-16T16:29:14;100269.19;;;17.23;70.21
27685;BME280;46113;50.130;8.526;2022-10-16T16:31:42;100269.19;;;17.23;70.57
27685;BME280;46113;50.130;8.526;2022-10-16T16:34:09;100264.25;;;17.17;70.51
27685;BME280;46113;50.130;8.526;2022-10-16T16:36:36;100267.16;;;17.14;71.07
27685;BME280;46113;50.130;8.526;2022-10-16T16:39:06;100268.13;;;17.13;71.25
27685;BME280;46113;50.130;8.526;2022-10-16T16:41:34;100275.69;;;17.06;71.57
27685;BME280;46113;50.130;8.526;2022-10-16T16:44:02;100276.22;;;16.98;71.20
27685;BME280;46113;50.130;8.526;2022-10-16T16:46:32;100275.16;;;16.88;71.65
27685;BME280;46113;50.130;8.526;2022-10-16T16:48:59;100285.31;;;16.82;72.19
27685;BME280;46113;50.130;8.526;2022-10-16T16:51:26;100291.41;;;16.72;72.90
27685;BME280;46113;50.130;8.526;2022-10-16T16:53:54;100286.22;;;16.68;72.93
27685;BME280;46113;50.130;8.526;2022-10-16T16:56:21;100281.16;;;16.64;73.46
27685;BME280;46113;50.130;8.526;2022-10-16T16:58:53;100296.56;;;16.60;73.36
27685;BME280;46113;50.130;8.526;2022-10-16T17:01:22;100298.03;;;16.51;73.81
27685;BME280;46113;50.130;8.526;2022-10-16T17:03:51;100305.91;;;16.40;74.47
27685;BME280;46113;50.130;8.526;2022-10-16T17:06:26;100308.22;;;16.32;75.02
27685;BME280;46113;50.130;8.526;2022-10-16T17:08:52;100306.06;;;16.24;74.86
27685;BME280;46113;50.130;8.526;2022-10-16T17:11:22;100308.75;;;16.09;75.74
27685;BME280;46113;50.130;8.526;2022-10-16T17:13:51;100310.78;;;16.06;75.96
27685;BME280;46113;50.130;8.526;2022-10-16T17:16:26;100314.09;;;16.09;76.10
27685;BME280;46113;50.130;8.526;2022-10-16T17:18:53;100310.03;;;16.03;76.52
27685;BME280;46113;50.130;8.526;2022-10-16T17:21:19;100309.97;;;15.91;77.01
27685;BME280;46113;50.130;8.526;2022-10-16T17:23:46;100308.13;;;15.76;77.63
27685;BME280;46113;50.130;8.526;2022-10-16T17:26:15;100312.81;;;15.87;77.11
27685;BME280;46113;50.130;8.526;2022-10-16T17:28:43;100319.97;;;15.87;76.90
27685;BME280;46113;50.130;8.526;2022-10-16T17:31:11;100313.94;;;15.83;77.09
27685;BME280;46113;50.130;8.526;2022-10-16T17:33:38;100313.84;;;15.70;77.53
27685;BME280;46113;50.130;8.526;2022-10-16T17:36:34;100322.44;;;15.46;78.29
27685;BME280;46113;50.130;8.526;2022-10-16T17:39:04;100322.91;;;15.53;78.16
27685;BME280;46113;50.130;8.526;2022-10-16T17:41:32;100326.34;;;15.41;78.23
27685;BME280;46113;50.130;8.526;2022-10-16T17:43:59;100326.03;;;15.31;78.64
27685;BME280;46113;50.130;8.526;2022-10-16T17:46:26;100321.56;;;15.17;78.77
27685;BME280;46113;50.130;8.526;2022-10-16T17:48:54;100332.09;;;15.04;79.60
27685;BME280;46113;50.130;8.526;2022-10-16T17:51:30;100323.88;;;14.92;79.91
27685;BME280;46113;50.130;8.526;2022-10-16T17:54:00;100334.88;;;14.86;80.32
27685;BME280;46113;50.130;8.526;2022-10-16T17:56:36;100337.44;;;14.88;79.91
27685;BME280;46113;50.130;8.526;2022-10-16T17:59:03;100342.41;;;14.94;79.81
27685;BME280;46113;50.130;8.526;2022-10-16T18:01:33;100340.97;;;14.88;79.76
27685;BME280;46113;50.130;8.526;2022-10-16T18:04:03;100336.22;;;14.93;79.16
27685;BME280;46113;50.130;8.526;2022-10-16T18:06:32;100340.91;;;14.90;78.92
27685;BME280;46113;50.130;8.526;2022-10-16T18:12:37;100343.50;;;14.75;79.47
27685;BME280;46113;50.130;8.526;2022-10-16T18:15:04;100340.06;;;14.73;79.38
27685;BME280;46113;50.130;8.526;2022-10-16T18:17:34;100353.50;;;14.71;79.61
27685;BME280;46113;50.130;8.526;2022-10-16T18:20:06;100362.44;;;14.54;79.87
27685;BME280;46113;50.130;8.526;2022-10-16T18:22:35;100352.31;;;14.29;81.56
27685;BME280;46113;50.130;8.526;2022-10-16T18:25:06;100351.72;;;14.40;80.63
27685;BME280;46113;50.130;8.526;2022-10-16T18:27:33;100352.47;;;14.42;80.65
27685;BME280;46113;50.130;8.526;2022-10-16T18:30:00;100354.75;;;14.34;80.84
27685;BME280;46113;50.130;8.526;2022-10-16T18:32:28;100358.16;;;14.36;80.99
27685;BME280;46113;50.130;8.526;2022-10-16T18:34:58;100359.34;;;14.30;81.05
27685;BME280;46113;50.130;8.526;2022-10-16T18:37:25;100353.50;;;14.23;80.99
27685;BME280;46113;50.130;8.526;2022-10-16T18:39:55;100362.44;;;14.22;80.99
27685;BME280;46113;50.130;8.526;2022-10-16T18:42:26;100357.47;;;14.16;81.14
27685;BME280;46113;50.130;8.526;2022-10-16T18:44:56;100367.00;;;14.04;81.74
27685;BME280;46113;50.130;8.526;2022-10-16T18:47:23;100360.63;;;13.90;82.21
27685;BME280;46113;50.130;8.526;2022-10-16T18:49:50;100361.03;;;13.99;81.92
27685;BME280;46113;50.130;8.526;2022-10-16T18:52:23;100361.91;;;13.99;81.65
27685;BME280;46113;50.130;8.526;2022-10-16T18:54:55;100365.94;;;13.90;81.86
27685;BME280;46113;50.130;8.526;2022-10-16T19:00:54;100370.19;;;13.77;82.60
27685;BME280;46113;50.130;8.526;2022-10-16T19:03:21;100369.38;;;13.59;83.20